createdAt,value
2022-10-01T00:02:07.916Z,97518.14
2022-10-01T00:04:37.560Z,97517.19
2022-10-01T00:07:09.563Z,97517.87
2022-10-01T00:09:37.951Z,97524.77
2022-10-01T00:12:06.464Z,97522.79
2022-10-01T00:14:35.642Z,97530.13
2022-10-01T00:17:05.271Z,97533.20
2022-10-01T00:19:33.336Z,97526.30
2022-10-01T00:22:01.180Z,97525.41
2022-10-01T00:24:29.363Z,97523.64
2022-10-01T00:26:57.488Z,97529.29
2022-10-01T00:29:26.267Z,97534.03
2022-10-01T00:31:54.199Z,97530.59
2022-10-01T00:34:23.087Z,97530.81
2022-10-01T00:36:50.839Z,97535.78
2022-10-01T00:39:19.859Z,97535.41
2022-10-01T00:41:48.140Z,97526.34
2022-10-01T00:44:32.966Z,97519.19
2022-10-01T00:47:31.869Z,97518.94
2022-10-01T00:50:11.749Z,97526.23
2022-10-01T00:52:42.795Z,97527.17
2022-10-01T00:55:16.301Z,97524.02
2022-10-01T00:57:45.814Z,97532.72
2022-10-01T01:00:14.968Z,97534.59
2022-10-01T01:02:44.637Z,97536.90
2022-10-01T01:05:14.022Z,97531.63
2022-10-01T01:07:46.475Z,97528.74
2022-10-01T01:10:18.900Z,97529.64
2022-10-01T01:13:26.915Z,97525.67
2022-10-01T01:16:20.674Z,97524.20
2022-10-01T01:19:05.986Z,97521.05
2022-10-01T01:21:44.738Z,97509.64
2022-10-01T01:24:38.682Z,97499.06
2022-10-01T01:27:18.554Z,97494.71
2022-10-01T01:30:01.381Z,97487.55
2022-10-01T01:32:38.134Z,97486.79
2022-10-01T01:35:11.279Z,97487.65
2022-10-01T01:37:45.625Z,97494.23
2022-10-01T01:40:17.161Z,97501.65
2022-10-01T01:42:48.593Z,97499.91
2022-10-01T01:45:22.735Z,97498.52
2022-10-01T01:47:57.241Z,97494.17
2022-10-01T01:50:29.305Z,97498.89
2022-10-01T01:53:00.456Z,97500.79
2022-10-01T01:55:31.015Z,97497.38
2022-10-01T01:57:59.787Z,97502.64
2022-10-01T02:00:29.132Z,97505.04
2022-10-01T02:02:58.928Z,97501.80
2022-10-01T02:05:38.131Z,97497.95
2022-10-01T02:08:30.794Z,97489.86
2022-10-01T02:11:05.492Z,97494.39
2022-10-01T02:13:45.207Z,97484.27
2022-10-01T02:16:50.338Z,97476.15
2022-10-01T02:19:39.945Z,97470.96
2022-10-01T02:22:17.946Z,97466.39
2022-10-01T02:24:56.903Z,97468.52
2022-10-01T02:27:37.438Z,97466.04
2022-10-01T02:30:09.443Z,97468.65
2022-10-01T02:32:40.722Z,97471.77
2022-10-01T02:35:15.064Z,97474.33
2022-10-01T02:37:47.277Z,97477.05
2022-10-01T02:40:20.454Z,97479.02
2022-10-01T02:42:59.556Z,97475.80
2022-10-01T02:45:33.723Z,97474.67
2022-10-01T02:48:09.583Z,97474.69
2022-10-01T02:50:52.328Z,97474.80
2022-10-01T02:53:41.036Z,97489.68
2022-10-01T02:56:14.573Z,97502.03
2022-10-01T02:58:47.439Z,97502.95
2022-10-01T03:01:15.347Z,97497.40
2022-10-01T03:03:44.563Z,97494.17
2022-10-01T03:06:13.551Z,97490.44
2022-10-01T03:08:41.436Z,97489.42
2022-10-01T03:11:10.836Z,97489.11
2022-10-01T03:13:39.812Z,97484.51
2022-10-01T03:16:08.370Z,97483.55
2022-10-01T03:18:36.183Z,97486.45
2022-10-01T03:21:05.257Z,97488.17
2022-10-01T03:23:33.742Z,97486.59
2022-10-01T03:26:01.999Z,97486.73
2022-10-01T03:28:30.349Z,97489.11
2022-10-01T03:31:07.060Z,97487.85
2022-10-01T03:33:35.794Z,97491.65
2022-10-01T03:36:04.968Z,97492.34
2022-10-01T03:38:33.267Z,97487.19
2022-10-01T03:41:01.880Z,97488.15
2022-10-01T03:43:30.476Z,97489.54
2022-10-01T03:45:58.262Z,97485.15
2022-10-01T03:48:26.353Z,97482.24
2022-10-01T03:50:59.617Z,97481.88
2022-10-01T03:53:29.495Z,97486.27
2022-10-01T03:55:58.878Z,97491.90
2022-10-01T03:58:27.272Z,97493.34
2022-10-01T04:00:55.648Z,97485.85
2022-10-01T04:03:23.206Z,97486.30
2022-10-01T04:05:51.924Z,97484.13
2022-10-01T04:08:24.228Z,97494.91
2022-10-01T04:10:52.989Z,97495.73
2022-10-01T04:13:20.593Z,97505.91
2022-10-01T04:15:49.870Z,97513.90
2022-10-01T04:18:18.935Z,97517.30
2022-10-01T04:20:47.447Z,97523.41
2022-10-01T04:23:15.309Z,97530.08
2022-10-01T04:25:42.983Z,97533.40
2022-10-01T04:28:14.716Z,97533.64
2022-10-01T04:30:44.415Z,97538.75
2022-10-01T04:33:14.345Z,97541.05
2022-10-01T04:35:43.153Z,97547.91
2022-10-01T04:38:16.835Z,97547.75
2022-10-01T04:40:44.329Z,97547.59
2022-10-01T04:43:12.974Z,97544.32
2022-10-01T04:45:40.380Z,97542.88
2022-10-01T04:48:07.714Z,97538.66
2022-10-01T04:50:35.195Z,97535.59
2022-10-01T04:53:02.514Z,97532.28
2022-10-01T04:55:29.757Z,97531.74
2022-10-01T04:57:57.108Z,97530.71
2022-10-01T05:00:26.089Z,97534.34
2022-10-01T05:02:53.890Z,97535.48
2022-10-01T05:05:24.058Z,97534.63
2022-10-01T05:07:53.102Z,97536.42
2022-10-01T05:10:22.575Z,97540.83
2022-10-01T05:12:51.354Z,97538.98
2022-10-01T05:15:19.599Z,97537.29
2022-10-01T05:17:47.566Z,97539.17
2022-10-01T05:20:24.154Z,97537.06
2022-10-01T05:22:52.105Z,97540.79
2022-10-01T05:25:20.273Z,97540.13
2022-10-01T05:27:47.702Z,97541.39
2022-10-01T05:30:23.608Z,97548.22
2022-10-01T05:32:59.182Z,97553.83
2022-10-01T05:35:27.531Z,97550.33
2022-10-01T05:38:04.635Z,97551.23
2022-10-01T05:40:32.836Z,97552.45
2022-10-01T05:43:02.502Z,97560.02
2022-10-01T05:45:31.798Z,97559.94
2022-10-01T05:48:05.833Z,97557.61
2022-10-01T05:50:38.688Z,97558.69
2022-10-01T05:53:07.849Z,97562.49
2022-10-01T05:55:35.532Z,97562.40
2022-10-01T05:58:05.773Z,97560.94
2022-10-01T06:00:34.559Z,97566.86
2022-10-01T06:03:03.899Z,97569.48
2022-10-01T06:05:33.633Z,97568.50
2022-10-01T06:08:03.966Z,97569.70
2022-10-01T06:10:31.144Z,97571.14
2022-10-01T06:13:02.028Z,97576.61
2022-10-01T06:15:33.780Z,97574.44
2022-10-01T06:18:06.114Z,97567.88
2022-10-01T06:20:34.291Z,97567.83
2022-10-01T06:23:01.738Z,97566.68
2022-10-01T06:25:29.254Z,97564.56
2022-10-01T06:28:01.502Z,97563.82
2022-10-01T06:30:37.284Z,97566.14
2022-10-01T06:33:13.948Z,97574.91
2022-10-01T06:35:43.928Z,97573.77
2022-10-01T06:38:11.583Z,97566.58
2022-10-01T06:40:39.842Z,97564.23
2022-10-01T06:43:15.299Z,97561.64
2022-10-01T06:45:45.626Z,97564.00
2022-10-01T06:48:14.309Z,97559.18
2022-10-01T06:50:45.649Z,97551.61
2022-10-01T06:53:14.948Z,97546.13
2022-10-01T06:55:42.098Z,97547.02
2022-10-01T06:58:15.595Z,97545.64
2022-10-01T07:00:44.965Z,97537.52
2022-10-01T07:03:14.200Z,97538.64
2022-10-01T07:05:41.694Z,97534.44
2022-10-01T07:08:09.314Z,97529.36
2022-10-01T07:10:40.455Z,97526.52
2022-10-01T07:13:13.621Z,97528.20
2022-10-01T07:15:41.004Z,97525.95
2022-10-01T07:18:09.194Z,97524.24
2022-10-01T07:20:40.322Z,97524.39
2022-10-01T07:23:13.929Z,97525.06
2022-10-01T07:25:42.533Z,97525.08
2022-10-01T07:28:18.016Z,97517.30
2022-10-01T07:30:59.332Z,97521.60
2022-10-01T07:33:26.791Z,97531.37
2022-10-01T07:35:54.643Z,97529.13
2022-10-01T07:38:22.036Z,97527.64
2022-10-01T07:40:54.264Z,97525.14
2022-10-01T07:43:22.613Z,97523.20
2022-10-01T07:45:54.649Z,97524.96
2022-10-01T07:48:21.972Z,97527.09
2022-10-01T07:50:49.663Z,97524.82
2022-10-01T07:53:17.290Z,97530.48
2022-10-01T07:55:45.525Z,97521.77
2022-10-01T07:58:13.126Z,97519.83
2022-10-01T08:00:40.485Z,97515.33
2022-10-01T08:03:08.807Z,97512.22
2022-10-01T08:05:35.983Z,97508.69
2022-10-01T08:08:06.540Z,97503.11
2022-10-01T08:10:36.503Z,97501.61
2022-10-01T08:13:10.676Z,97497.58
2022-10-01T08:15:41.911Z,97495.55
2022-10-01T08:18:10.871Z,97492.96
2022-10-01T08:20:39.286Z,97493.47
2022-10-01T08:23:09.880Z,97495.39
2022-10-01T08:25:39.425Z,97492.01
2022-10-01T08:28:10.966Z,97489.86
2022-10-01T08:30:41.016Z,97487.73
2022-10-01T08:33:11.689Z,97484.77
2022-10-01T08:35:40.398Z,97481.86
2022-10-01T08:38:07.864Z,97480.74
2022-10-01T08:40:41.872Z,97478.27
2022-10-01T08:43:34.226Z,97478.81
2022-10-01T08:46:05.861Z,97477.94
2022-10-01T08:49:00.258Z,97471.97
2022-10-01T08:51:39.700Z,97463.89
2022-10-01T08:54:29.319Z,97468.97
2022-10-01T08:57:02.364Z,97461.97
2022-10-01T08:59:34.937Z,97459.51
2022-10-01T09:02:02.391Z,97459.61
2022-10-01T09:04:29.781Z,97462.65
2022-10-01T09:07:16.744Z,97454.85
2022-10-01T09:10:00.299Z,97452.34
2022-10-01T09:12:46.716Z,97447.24
2022-10-01T09:15:17.638Z,97444.45
2022-10-01T09:17:53.804Z,97444.77
2022-10-01T09:20:27.073Z,97440.95
2022-10-01T09:23:27.111Z,97437.52
2022-10-01T09:25:56.741Z,97434.55
2022-10-01T09:28:28.351Z,97429.92
2022-10-01T09:31:00.133Z,97423.73
2022-10-01T09:33:36.026Z,97424.04
2022-10-01T09:36:18.804Z,97423.98
2022-10-01T09:38:51.684Z,97421.55
2022-10-01T09:41:19.755Z,97421.20
2022-10-01T09:43:47.522Z,97413.40
2022-10-01T09:46:17.163Z,97403.98
2022-10-01T09:49:00.251Z,97402.69
2022-10-01T09:51:38.254Z,97396.41
2022-10-01T09:54:11.038Z,97385.31
2022-10-01T09:56:48.172Z,97377.19
2022-10-01T09:59:35.753Z,97378.80
2022-10-01T10:02:14.853Z,97377.07
2022-10-01T10:04:44.703Z,97371.94
2022-10-01T10:07:19.423Z,97365.52
2022-10-01T10:09:47.147Z,97359.39
2022-10-01T10:12:28.076Z,97357.05
2022-10-01T10:14:58.615Z,97353.89
2022-10-01T10:17:26.963Z,97348.05
2022-10-01T10:19:56.960Z,97349.09
2022-10-01T10:22:26.361Z,97346.22
2022-10-01T10:24:58.852Z,97349.96
2022-10-01T10:27:29.899Z,97352.45
2022-10-01T10:30:08.499Z,97354.42
2022-10-01T10:32:36.011Z,97350.98
2022-10-01T10:35:10.195Z,97343.34
2022-10-01T10:37:45.585Z,97341.57
2022-10-01T10:40:29.589Z,97337.77
2022-10-01T10:42:59.286Z,97335.81
2022-10-01T10:45:37.668Z,97328.52
2022-10-01T10:48:11.971Z,97329.23
2022-10-01T10:50:44.902Z,97324.02
2022-10-01T10:53:20.032Z,97321.63
2022-10-01T10:55:55.275Z,97322.16
2022-10-01T10:58:26.597Z,97319.05
2022-10-01T11:01:06.522Z,97313.35
2022-10-01T11:03:38.774Z,97308.38
2022-10-01T11:06:12.080Z,97295.41
2022-10-01T11:08:39.481Z,97295.40
2022-10-01T11:11:43.400Z,97285.33
2022-10-01T11:14:48.951Z,97278.66
2022-10-01T11:17:51.119Z,97274.25
2022-10-01T11:20:33.834Z,97268.95
2022-10-01T11:23:16.485Z,97264.57
2022-10-01T11:26:17.798Z,97263.77
2022-10-01T11:28:46.893Z,97265.38
2022-10-01T11:31:24.483Z,97265.38
2022-10-01T11:34:03.620Z,97265.70
2022-10-01T11:36:36.586Z,97257.92
2022-10-01T11:39:13.687Z,97254.65
2022-10-01T11:41:52.495Z,97251.78
2022-10-01T11:44:56.330Z,97245.10
2022-10-01T11:47:36.245Z,97243.70
2022-10-01T11:50:28.542Z,97239.82
2022-10-01T11:53:08.544Z,97235.27
2022-10-01T11:56:06.428Z,97230.17
2022-10-01T11:59:12.388Z,97223.14
2022-10-01T12:01:49.233Z,97215.66
2022-10-01T12:04:41.631Z,97209.00
2022-10-01T12:07:26.518Z,97207.45
2022-10-01T12:10:21.474Z,97205.14
2022-10-01T12:12:56.612Z,97199.12
2022-10-01T12:15:32.244Z,97194.48
2022-10-01T12:18:39.509Z,97188.00
2022-10-01T12:21:24.245Z,97181.05
2022-10-01T12:24:00.200Z,97172.09
2022-10-01T12:26:48.613Z,97170.36
2022-10-01T12:29:25.027Z,97163.63
2022-10-01T12:32:11.220Z,97161.16
2022-10-01T12:35:03.821Z,97155.05
2022-10-01T12:38:06.609Z,97146.25
2022-10-01T12:40:46.655Z,97134.75
2022-10-01T12:43:47.031Z,97134.27
2022-10-01T12:46:33.630Z,97129.42
2022-10-01T12:49:21.953Z,97120.89
2022-10-01T12:51:55.231Z,97117.30
2022-10-01T12:54:47.783Z,97117.27
2022-10-01T12:57:39.034Z,97119.06
2022-10-01T13:00:11.261Z,97116.51
2022-10-01T13:02:57.784Z,97110.45
2022-10-01T13:05:33.049Z,97104.53
2022-10-01T13:08:18.099Z,97103.36
2022-10-01T13:10:57.405Z,97102.58
2022-10-01T13:13:32.646Z,97097.45
2022-10-01T13:16:18.376Z,97096.41
2022-10-01T13:19:03.491Z,97090.08
2022-10-01T13:22:01.372Z,97083.14
2022-10-01T13:24:49.618Z,97077.70
2022-10-01T13:27:17.504Z,97068.11
2022-10-01T13:30:02.954Z,97062.50
2022-10-01T13:32:37.273Z,97052.55
2022-10-01T13:35:36.228Z,97049.21
2022-10-01T13:38:28.671Z,97053.15
2022-10-01T13:41:03.022Z,97048.99
2022-10-01T13:43:32.334Z,97044.98
2022-10-01T13:46:08.760Z,97044.10
2022-10-01T13:48:45.489Z,97043.95
2022-10-01T13:51:14.880Z,97039.27
2022-10-01T13:53:44.515Z,97031.23
2022-10-01T13:56:14.889Z,97023.63
2022-10-01T13:58:44.258Z,97019.42
2022-10-01T14:01:23.688Z,97014.71
2022-10-01T14:04:21.523Z,97010.50
2022-10-01T14:07:21.525Z,97006.18
2022-10-01T14:09:52.422Z,97000.13
2022-10-01T14:12:40.537Z,97002.75
2022-10-01T14:15:35.677Z,97003.36
2022-10-01T14:18:10.245Z,97002.69
2022-10-01T14:21:09.692Z,97003.36
2022-10-01T14:24:18.646Z,97008.14
2022-10-01T14:26:54.484Z,97010.39
2022-10-01T14:29:47.602Z,97008.41
2022-10-01T14:32:33.277Z,97002.64
2022-10-01T14:35:25.003Z,96998.83
2022-10-01T14:37:59.188Z,96997.60
2022-10-01T14:40:36.258Z,96996.59
2022-10-01T14:43:18.812Z,96986.74
2022-10-01T14:45:56.062Z,96981.48
2022-10-01T14:48:25.333Z,96969.73
2022-10-01T14:50:56.388Z,96968.61
2022-10-01T14:53:27.210Z,96963.79
2022-10-01T14:55:58.828Z,96960.44
2022-10-01T14:58:37.371Z,96954.50
2022-10-01T15:01:06.010Z,96951.23
2022-10-01T15:03:48.437Z,96946.30
2022-10-01T15:06:18.588Z,96944.04
2022-10-01T15:08:48.473Z,96944.23
2022-10-01T15:11:28.628Z,96946.48
2022-10-01T15:14:10.422Z,96940.80
2022-10-01T15:16:38.050Z,96937.43
2022-10-01T15:19:15.268Z,96933.95
2022-10-01T15:21:56.033Z,96928.39
2022-10-01T15:24:39.236Z,96921.01
2022-10-01T15:27:13.275Z,96911.90
2022-10-01T15:29:42.580Z,96911.91
2022-10-01T15:32:13.108Z,96913.33
2022-10-01T15:34:47.530Z,96900.04
2022-10-01T15:37:49.356Z,96894.25
2022-10-01T15:40:29.909Z,96881.41
2022-10-01T15:43:09.224Z,96876.27
2022-10-01T15:45:36.536Z,96881.19
2022-10-01T15:48:03.889Z,96873.90
2022-10-01T15:50:37.327Z,96869.37
2022-10-01T15:53:19.251Z,96869.05
2022-10-01T15:55:52.089Z,96867.95
2022-10-01T15:58:24.134Z,96859.95
2022-10-01T16:01:02.984Z,96854.78
2022-10-01T16:03:33.747Z,96851.84
2022-10-01T16:06:03.727Z,96857.13
2022-10-01T16:08:35.767Z,96857.88
2022-10-01T16:11:31.589Z,96846.21
2022-10-01T16:14:29.869Z,96834.66
2022-10-01T16:17:17.367Z,96826.89
2022-10-01T16:19:49.847Z,96824.54
2022-10-01T16:22:18.833Z,96811.97
2022-10-01T16:24:52.115Z,96801.86
2022-10-01T16:27:27.205Z,96794.96
2022-10-01T16:30:07.243Z,96800.91
2022-10-01T16:32:35.572Z,96803.92
2022-10-01T16:35:20.403Z,96806.47
2022-10-01T16:37:49.890Z,96803.11
2022-10-01T16:40:23.700Z,96804.55
2022-10-01T16:42:51.964Z,96799.86
2022-10-01T16:45:32.101Z,96789.54
2022-10-01T16:48:00.141Z,96791.36
2022-10-01T16:50:27.416Z,96783.79
2022-10-01T16:52:55.726Z,96780.08
2022-10-01T16:55:30.302Z,96774.48
2022-10-01T16:57:57.605Z,96773.96
2022-10-01T17:00:26.127Z,96775.19
2022-10-01T17:02:54.459Z,96773.21
2022-10-01T17:05:39.415Z,96766.79
2022-10-01T17:08:13.227Z,96757.95
2022-10-01T17:10:44.800Z,96751.81
2022-10-01T17:13:13.363Z,96751.09
2022-10-01T17:15:41.537Z,96743.42
2022-10-01T17:18:09.448Z,96740.55
2022-10-01T17:20:38.044Z,96739.13
2022-10-01T17:23:05.781Z,96734.40
2022-10-01T17:25:35.646Z,96735.55
2022-10-01T17:28:05.023Z,96734.16
2022-10-01T17:30:32.419Z,96737.27
2022-10-01T17:33:03.919Z,96739.48
2022-10-01T17:35:36.809Z,96730.33
2022-10-01T17:38:05.882Z,96727.08
2022-10-01T17:40:33.001Z,96723.13
2022-10-01T17:43:00.070Z,96728.41
2022-10-01T17:45:27.347Z,96723.89
2022-10-01T17:47:56.189Z,96721.34
2022-10-01T17:50:25.692Z,96719.46
2022-10-01T17:52:53.157Z,96712.39
2022-10-01T17:55:23.272Z,96710.59
2022-10-01T17:57:50.899Z,96707.78
2022-10-01T18:00:20.776Z,96702.44
2022-10-01T18:02:49.883Z,96695.04
2022-10-01T18:05:17.179Z,96696.28
2022-10-01T18:07:44.836Z,96697.05
2022-10-01T18:10:13.749Z,96696.31
2022-10-01T18:12:40.900Z,96694.63
2022-10-01T18:15:08.746Z,96697.31
2022-10-01T18:17:42.988Z,96697.87
2022-10-01T18:20:10.847Z,96698.77
2022-10-01T18:22:38.098Z,96695.42
2022-10-01T18:25:09.195Z,96695.49
2022-10-01T18:27:37.537Z,96695.56
2022-10-01T18:30:05.302Z,96701.29
2022-10-01T18:32:38.982Z,96725.81
2022-10-01T18:35:18.929Z,96756.81
2022-10-01T18:37:55.984Z,96766.38
2022-10-01T18:40:27.418Z,96769.98
2022-10-01T18:43:13.864Z,96779.46
2022-10-01T18:46:02.586Z,96785.02
2022-10-01T18:48:48.101Z,96788.70
2022-10-01T18:51:26.231Z,96788.21
2022-10-01T18:54:22.408Z,96793.00
2022-10-01T18:57:31.435Z,96813.09
2022-10-01T19:00:17.769Z,96821.17
2022-10-01T19:03:01.099Z,96817.77
2022-10-01T19:05:52.216Z,96827.70
2022-10-01T19:08:56.839Z,96830.85
2022-10-01T19:11:54.501Z,96842.53
2022-10-01T19:14:57.285Z,96853.17
2022-10-01T19:17:54.946Z,96858.84
2022-10-01T19:20:47.293Z,96858.21
2022-10-01T19:23:36.346Z,96850.86
2022-10-01T19:26:16.209Z,96846.02
2022-10-01T19:28:46.026Z,96846.00
2022-10-01T19:31:22.073Z,96830.96
2022-10-01T19:33:59.385Z,96816.89
2022-10-01T19:36:40.171Z,96818.90
2022-10-01T19:39:19.827Z,96820.97
2022-10-01T19:41:54.191Z,96809.27
2022-10-01T19:44:28.202Z,96813.20
2022-10-01T19:47:00.686Z,96808.59
2022-10-01T19:49:36.833Z,96806.84
2022-10-01T19:52:12.375Z,96795.55
2022-10-01T19:54:53.813Z,96794.52
2022-10-01T19:57:34.402Z,96793.00
2022-10-01T20:00:11.676Z,96794.47
2022-10-01T20:02:48.770Z,96792.76
2022-10-01T20:05:28.037Z,96785.15
2022-10-01T20:08:33.743Z,96787.73
2022-10-01T20:11:09.866Z,96788.75
2022-10-01T20:14:10.694Z,96778.45
2022-10-01T20:16:46.672Z,96776.20
2022-10-01T20:19:33.965Z,96788.91
2022-10-01T20:22:19.576Z,96788.52
2022-10-01T20:24:48.747Z,96779.40
2022-10-01T20:27:28.185Z,96772.83
2022-10-01T20:30:11.584Z,96756.52
2022-10-01T20:32:49.103Z,96746.88
2022-10-01T20:35:22.913Z,96749.39
2022-10-01T20:38:06.555Z,96752.63
2022-10-01T20:40:49.262Z,96750.45
2022-10-01T20:43:28.338Z,96750.01
2022-10-01T20:45:57.086Z,96756.58
2022-10-01T20:48:29.861Z,96764.69
2022-10-01T20:51:04.154Z,96765.57
2022-10-01T20:53:38.334Z,96768.11
2022-10-01T20:56:15.939Z,96786.23
2022-10-01T20:58:59.072Z,96798.38
2022-10-01T21:01:29.854Z,96801.67
2022-10-01T21:04:01.178Z,96801.08
2022-10-01T21:06:39.500Z,96800.81
2022-10-01T21:09:28.679Z,96797.49
2022-10-01T21:12:01.846Z,96792.89
2022-10-01T21:14:36.148Z,96797.41
2022-10-01T21:17:30.779Z,96802.88
2022-10-01T21:20:22.826Z,96808.87
2022-10-01T21:23:02.456Z,96814.56
2022-10-01T21:25:43.895Z,96811.28
2022-10-01T21:28:34.176Z,96810.26
2022-10-01T21:31:37.641Z,96812.39
2022-10-01T21:34:17.379Z,96821.23
2022-10-01T21:37:29.632Z,96833.83
2022-10-01T21:40:42.593Z,96836.21
2022-10-01T21:43:28.394Z,96835.05
2022-10-01T21:46:36.610Z,96827.52
2022-10-01T21:49:25.667Z,96815.67
2022-10-01T21:51:58.800Z,96816.31
2022-10-01T21:54:44.330Z,96809.40
2022-10-01T21:57:17.427Z,96808.24
2022-10-01T22:00:03.961Z,96799.55
2022-10-01T22:03:04.587Z,96798.53
2022-10-01T22:05:44.206Z,96812.95
2022-10-01T22:08:23.442Z,96812.89
2022-10-01T22:10:57.046Z,96803.23
2022-10-01T22:13:31.236Z,96795.83
2022-10-01T22:16:08.347Z,96799.86
2022-10-01T22:18:43.571Z,96797.88
2022-10-01T22:21:24.836Z,96795.20
2022-10-01T22:24:33.481Z,96792.84
2022-10-01T22:27:11.254Z,96782.04
2022-10-01T22:29:48.786Z,96776.06
2022-10-01T22:32:22.686Z,96776.96
2022-10-01T22:34:59.035Z,96780.05
2022-10-01T22:37:38.071Z,96789.44
2022-10-01T22:40:16.558Z,96788.27
2022-10-01T22:42:56.260Z,96781.84
2022-10-01T22:45:33.061Z,96780.05
2022-10-01T22:48:08.547Z,96783.42
2022-10-01T22:50:57.916Z,96783.36
2022-10-01T22:53:50.884Z,96779.29
2022-10-01T22:56:32.308Z,96770.89
2022-10-01T22:59:55.641Z,96759.48
2022-10-01T23:02:48.281Z,96750.27
2022-10-01T23:05:35.309Z,96751.04
2022-10-01T23:08:11.792Z,96753.91
2022-10-01T23:10:48.196Z,96754.02
2022-10-01T23:13:26.036Z,96753.59
2022-10-01T23:16:00.415Z,96752.57
2022-10-01T23:18:47.995Z,96752.30
2022-10-01T23:21:33.060Z,96752.80
2022-10-01T23:24:25.443Z,96753.68
2022-10-01T23:27:17.927Z,96757.68
2022-10-01T23:29:54.345Z,96755.75
2022-10-01T23:32:38.139Z,96751.63
2022-10-01T23:35:19.938Z,96757.17
2022-10-01T23:37:54.478Z,96758.98
2022-10-01T23:40:28.709Z,96762.95
2022-10-01T23:43:35.143Z,96752.85
2022-10-01T23:46:20.352Z,96742.77
2022-10-01T23:49:00.198Z,96747.42
2022-10-01T23:51:40.609Z,96755.20
2022-10-01T23:54:21.264Z,96750.50
2022-10-01T23:57:08.398Z,96746.42
2022-10-01T23:59:38.782Z,96738.54
